sensor_id;sensor_type;location;lat;lon;timestamp;P1;durP1;ratioP1;P2;durP2;ratioP2
39218;SDS011;24934;52.752;6.964;2022-07-21T00:00:23;12.73;;;11.73;;
39218;SDS011;24934;52.752;6.964;2022-07-21T00:02:50;15.65;;;14.65;;
39218;SDS011;24934;52.752;6.964;2022-07-21T00:05:17;16.85;;;15.15;;
39218;SDS011;24934;52.752;6.964;2022-07-21T00:07:43;17.13;;;16.05;;
39218;SDS011;24934;52.752;6.964;2022-07-21T00:10:09;18.70;;;17.50;;
39218;SDS011;24934;52.752;6.964;2022-07-21T00:12:35;18.88;;;17.65;;
39218;SDS011;24934;52.752;6.964;2022-07-21T00:15:01;19.55;;;18.15;;
39218;SDS011;24934;52.752;6.964;2022-07-21T00:17:28;19.30;;;18.00;;
39218;SDS011;24934;52.752;6.964;2022-07-21T00:19:53;20.02;;;18.73;;
39218;SDS011;24934;52.752;6.964;2022-07-21T00:22:19;20.13;;;18.75;;
39218;SDS011;24934;52.752;6.964;2022-07-21T00:24:45;21.75;;;20.23;;
39218;SDS011;24934;52.752;6.964;2022-07-21T00:27:10;20.52;;;18.90;;
39218;SDS011;24934;52.752;6.964;2022-07-21T00:29:36;20.45;;;19.05;;
39218;SDS011;24934;52.752;6.964;2022-07-21T00:32:01;20.65;;;19.15;;
39218;SDS011;24934;52.752;6.964;2022-07-21T00:34:29;22.00;;;20.15;;
39218;SDS011;24934;52.752;6.964;2022-07-21T00:36:54;22.08;;;20.00;;
39218;SDS011;24934;52.752;6.964;2022-07-21T00:39:20;20.63;;;19.02;;
39218;SDS011;24934;52.752;6.964;2022-07-21T00:41:45;23.42;;;21.10;;
39218;SDS011;24934;52.752;6.964;2022-07-21T00:44:21;21.58;;;19.73;;
39218;SDS011;24934;52.752;6.964;2022-07-21T00:46:47;21.40;;;19.75;;
39218;SDS011;24934;52.752;6.964;2022-07-21T00:49:13;21.52;;;19.83;;
39218;SDS011;24934;52.752;6.964;2022-07-21T00:51:41;22.83;;;20.95;;
39218;SDS011;24934;52.752;6.964;2022-07-21T00:54:06;24.67;;;22.67;;
39218;SDS011;24934;52.752;6.964;2022-07-21T00:56:32;24.00;;;22.00;;
39218;SDS011;24934;52.752;6.964;2022-07-21T00:58:58;22.85;;;21.05;;
39218;SDS011;24934;52.752;6.964;2022-07-21T01:01:23;23.63;;;21.75;;
39218;SDS011;24934;52.752;6.964;2022-07-21T01:03:49;23.85;;;21.90;;
39218;SDS011;24934;52.752;6.964;2022-07-21T01:06:14;24.63;;;22.42;;
39218;SDS011;24934;52.752;6.964;2022-07-21T01:08:40;25.17;;;21.40;;
39218;SDS011;24934;52.752;6.964;2022-07-21T01:11:06;23.75;;;21.65;;
39218;SDS011;24934;52.752;6.964;2022-07-21T01:13:31;23.02;;;21.02;;
39218;SDS011;24934;52.752;6.964;2022-07-21T01:15:57;24.20;;;21.98;;
39218;SDS011;24934;52.752;6.964;2022-07-21T01:18:23;22.48;;;20.58;;
39218;SDS011;24934;52.752;6.964;2022-07-21T01:20:51;23.92;;;21.83;;
39218;SDS011;24934;52.752;6.964;2022-07-21T01:23:17;23.13;;;21.10;;
39218;SDS011;24934;52.752;6.964;2022-07-21T01:25:48;22.20;;;20.38;;
39218;SDS011;24934;52.752;6.964;2022-07-21T01:28:14;22.27;;;20.38;;
39218;SDS011;24934;52.752;6.964;2022-07-21T01:30:40;23.30;;;21.20;;
39218;SDS011;24934;52.752;6.964;2022-07-21T01:33:06;23.92;;;21.42;;
39218;SDS011;24934;52.752;6.964;2022-07-21T01:35:31;23.95;;;21.85;;
39218;SDS011;24934;52.752;6.964;2022-07-21T01:37:57;23.88;;;21.83;;
39218;SDS011;24934;52.752;6.964;2022-07-21T01:40:24;23.08;;;21.05;;
39218;SDS011;24934;52.752;6.964;2022-07-21T01:43:08;23.55;;;21.55;;
39218;SDS011;24934;52.752;6.964;2022-07-21T01:45:34;25.52;;;23.17;;
39218;SDS011;24934;52.752;6.964;2022-07-21T01:47:59;24.98;;;22.52;;
39218;SDS011;24934;52.752;6.964;2022-07-21T01:50:25;23.98;;;21.92;;
39218;SDS011;24934;52.752;6.964;2022-07-21T01:52:52;23.33;;;21.33;;
39218;SDS011;24934;52.752;6.964;2022-07-21T01:55:19;24.17;;;21.98;;
39218;SDS011;24934;52.752;6.964;2022-07-21T01:57:45;22.27;;;20.38;;
39218;SDS011;24934;52.752;6.964;2022-07-21T02:00:11;23.00;;;21.02;;
39218;SDS011;24934;52.752;6.964;2022-07-21T02:02:37;24.98;;;22.65;;
39218;SDS011;24934;52.752;6.964;2022-07-21T02:05:02;24.33;;;22.23;;
39218;SDS011;24934;52.752;6.964;2022-07-21T02:07:28;25.52;;;23.20;;
39218;SDS011;24934;52.752;6.964;2022-07-21T02:09:54;24.13;;;22.02;;
39218;SDS011;24934;52.752;6.964;2022-07-21T02:12:19;24.92;;;22.73;;
39218;SDS011;24934;52.752;6.964;2022-07-21T02:14:45;26.05;;;23.67;;
39218;SDS011;24934;52.752;6.964;2022-07-21T02:17:11;23.40;;;21.30;;
39218;SDS011;24934;52.752;6.964;2022-07-21T02:19:36;23.17;;;21.05;;
39218;SDS011;24934;52.752;6.964;2022-07-21T02:22:02;25.08;;;22.33;;
39218;SDS011;24934;52.752;6.964;2022-07-21T02:24:28;25.20;;;22.90;;
39218;SDS011;24934;52.752;6.964;2022-07-21T02:26:53;25.95;;;23.55;;
39218;SDS011;24934;52.752;6.964;2022-07-21T02:29:19;24.98;;;22.73;;
39218;SDS011;24934;52.752;6.964;2022-07-21T02:31:44;25.45;;;23.15;;
39218;SDS011;24934;52.752;6.964;2022-07-21T02:34:10;25.85;;;23.55;;
39218;SDS011;24934;52.752;6.964;2022-07-21T02:36:38;26.35;;;24.02;;
39218;SDS011;24934;52.752;6.964;2022-07-21T02:39:04;26.55;;;24.05;;
39218;SDS011;24934;52.752;6.964;2022-07-21T02:41:30;26.73;;;24.42;;
39218;SDS011;24934;52.752;6.964;2022-07-21T02:43:56;27.20;;;24.70;;
39218;SDS011;24934;52.752;6.964;2022-07-21T02:46:22;27.08;;;24.70;;
39218;SDS011;24934;52.752;6.964;2022-07-21T02:48:47;26.90;;;24.50;;
39218;SDS011;24934;52.752;6.964;2022-07-21T02:51:13;28.42;;;25.48;;
39218;SDS011;24934;52.752;6.964;2022-07-21T02:53:38;26.65;;;24.35;;
39218;SDS011;24934;52.752;6.964;2022-07-21T02:56:04;26.80;;;24.50;;
39218;SDS011;24934;52.752;6.964;2022-07-21T02:58:30;28.55;;;25.95;;
39218;SDS011;24934;52.752;6.964;2022-07-21T03:00:57;27.83;;;25.15;;
39218;SDS011;24934;52.752;6.964;2022-07-21T03:03:31;25.92;;;23.63;;
39218;SDS011;24934;52.752;6.964;2022-07-21T03:05:58;24.83;;;22.63;;
39218;SDS011;24934;52.752;6.964;2022-07-21T03:08:25;26.23;;;23.83;;
39218;SDS011;24934;52.752;6.964;2022-07-21T03:10:52;25.83;;;23.42;;
39218;SDS011;24934;52.752;6.964;2022-07-21T03:13:17;26.40;;;24.05;;
39218;SDS011;24934;52.752;6.964;2022-07-21T03:15:43;26.13;;;23.77;;
39218;SDS011;24934;52.752;6.964;2022-07-21T03:18:09;27.90;;;25.27;;
39218;SDS011;24934;52.752;6.964;2022-07-21T03:20:35;27.15;;;24.65;;
39218;SDS011;24934;52.752;6.964;2022-07-21T03:23:03;26.10;;;23.70;;
39218;SDS011;24934;52.752;6.964;2022-07-21T03:25:29;27.98;;;25.48;;
39218;SDS011;24934;52.752;6.964;2022-07-21T03:27:55;26.25;;;23.85;;
39218;SDS011;24934;52.752;6.964;2022-07-21T03:30:21;26.45;;;24.05;;
39218;SDS011;24934;52.752;6.964;2022-07-21T03:32:47;27.10;;;24.60;;
39218;SDS011;24934;52.752;6.964;2022-07-21T03:35:14;28.08;;;25.58;;
39218;SDS011;24934;52.752;6.964;2022-07-21T03:37:44;30.40;;;27.70;;
39218;SDS011;24934;52.752;6.964;2022-07-21T03:40:15;31.73;;;28.63;;
39218;SDS011;24934;52.752;6.964;2022-07-21T03:42:44;33.53;;;30.42;;
39218;SDS011;24934;52.752;6.964;2022-07-21T03:45:10;31.05;;;28.20;;
39218;SDS011;24934;52.752;6.964;2022-07-21T03:47:36;34.00;;;30.80;;
39218;SDS011;24934;52.752;6.964;2022-07-21T03:50:03;34.40;;;31.30;;
39218;SDS011;24934;52.752;6.964;2022-07-21T03:52:30;33.97;;;30.50;;
39218;SDS011;24934;52.752;6.964;2022-07-21T03:54:56;39.42;;;29.98;;
39218;SDS011;24934;52.752;6.964;2022-07-21T03:57:37;33.15;;;29.95;;
39218;SDS011;24934;52.752;6.964;2022-07-21T04:00:07;33.53;;;30.35;;
39218;SDS011;24934;52.752;6.964;2022-07-21T04:02:36;31.35;;;28.40;;
39218;SDS011;24934;52.752;6.964;2022-07-21T04:05:02;31.55;;;28.48;;
39218;SDS011;24934;52.752;6.964;2022-07-21T04:07:29;29.25;;;26.65;;
39218;SDS011;24934;52.752;6.964;2022-07-21T04:09:54;29.45;;;26.75;;
39218;SDS011;24934;52.752;6.964;2022-07-21T04:12:24;27.42;;;25.00;;
39218;SDS011;24934;52.752;6.964;2022-07-21T04:14:50;27.58;;;25.08;;
39218;SDS011;24934;52.752;6.964;2022-07-21T04:17:16;27.70;;;25.20;;
39218;SDS011;24934;52.752;6.964;2022-07-21T04:19:41;29.02;;;26.42;;
39218;SDS011;24934;52.752;6.964;2022-07-21T04:22:07;28.00;;;25.50;;
39218;SDS011;24934;52.752;6.964;2022-07-21T04:24:33;27.75;;;25.17;;
39218;SDS011;24934;52.752;6.964;2022-07-21T04:27:22;28.55;;;26.02;;
39218;SDS011;24934;52.752;6.964;2022-07-21T04:29:47;27.40;;;24.88;;
39218;SDS011;24934;52.752;6.964;2022-07-21T04:32:13;24.35;;;21.95;;
39218;SDS011;24934;52.752;6.964;2022-07-21T04:34:39;24.98;;;22.73;;
39218;SDS011;24934;52.752;6.964;2022-07-21T04:37:04;25.48;;;23.13;;
39218;SDS011;24934;52.752;6.964;2022-07-21T04:39:30;24.63;;;22.52;;
39218;SDS011;24934;52.752;6.964;2022-07-21T04:41:56;27.75;;;25.27;;
39218;SDS011;24934;52.752;6.964;2022-07-21T04:44:25;26.90;;;24.20;;
39218;SDS011;24934;52.752;6.964;2022-07-21T04:46:50;26.48;;;23.95;;
39218;SDS011;24934;52.752;6.964;2022-07-21T04:49:16;25.23;;;23.05;;
39218;SDS011;24934;52.752;6.964;2022-07-21T04:51:42;26.35;;;23.92;;
39218;SDS011;24934;52.752;6.964;2022-07-21T04:54:07;26.05;;;23.55;;
39218;SDS011;24934;52.752;6.964;2022-07-21T04:56:33;24.45;;;22.23;;
39218;SDS011;24934;52.752;6.964;2022-07-21T04:58:59;24.80;;;22.63;;
39218;SDS011;24934;52.752;6.964;2022-07-21T05:01:26;25.48;;;23.25;;
39218;SDS011;24934;52.752;6.964;2022-07-21T05:03:54;26.35;;;24.05;;
39218;SDS011;24934;52.752;6.964;2022-07-21T05:06:19;27.42;;;25.02;;
39218;SDS011;24934;52.752;6.964;2022-07-21T05:08:45;26.73;;;24.52;;
39218;SDS011;24934;52.752;6.964;2022-07-21T05:11:12;26.63;;;24.35;;
39218;SDS011;24934;52.752;6.964;2022-07-21T05:13:38;26.83;;;24.45;;
39218;SDS011;24934;52.752;6.964;2022-07-21T05:16:04;25.08;;;22.88;;
39218;SDS011;24934;52.752;6.964;2022-07-21T05:18:30;24.98;;;22.88;;
39218;SDS011;24934;52.752;6.964;2022-07-21T05:20:57;24.58;;;22.58;;
39218;SDS011;24934;52.752;6.964;2022-07-21T05:23:22;25.27;;;23.00;;
39218;SDS011;24934;52.752;6.964;2022-07-21T05:25:48;24.42;;;22.33;;
39218;SDS011;24934;52.752;6.964;2022-07-21T05:28:13;25.20;;;22.90;;
39218;SDS011;24934;52.752;6.964;2022-07-21T05:30:39;24.95;;;22.83;;
39218;SDS011;24934;52.752;6.964;2022-07-21T05:33:05;24.63;;;22.52;;
39218;SDS011;24934;52.752;6.964;2022-07-21T05:35:30;25.67;;;23.42;;
39218;SDS011;24934;52.752;6.964;2022-07-21T05:37:58;25.20;;;22.92;;
39218;SDS011;24934;52.752;6.964;2022-07-21T05:40:24;25.15;;;22.77;;
39218;SDS011;24934;52.752;6.964;2022-07-21T05:42:50;25.08;;;22.73;;
39218;SDS011;24934;52.752;6.964;2022-07-21T05:45:18;25.02;;;22.85;;
39218;SDS011;24934;52.752;6.964;2022-07-21T05:47:44;25.40;;;23.10;;
39218;SDS011;24934;52.752;6.964;2022-07-21T05:50:10;24.38;;;22.27;;
39218;SDS011;24934;52.752;6.964;2022-07-21T05:52:36;26.05;;;23.60;;
39218;SDS011;24934;52.752;6.964;2022-07-21T05:55:03;24.10;;;22.10;;
39218;SDS011;24934;52.752;6.964;2022-07-21T05:57:29;24.00;;;21.92;;
39218;SDS011;24934;52.752;6.964;2022-07-21T05:59:55;25.95;;;23.70;;
39218;SDS011;24934;52.752;6.964;2022-07-21T06:02:20;24.38;;;22.38;;
39218;SDS011;24934;52.752;6.964;2022-07-21T06:04:46;24.92;;;22.73;;
39218;SDS011;24934;52.752;6.964;2022-07-21T06:07:12;26.20;;;24.00;;
39218;SDS011;24934;52.752;6.964;2022-07-21T06:09:37;26.88;;;24.77;;
39218;SDS011;24934;52.752;6.964;2022-07-21T06:12:03;27.08;;;24.88;;
39218;SDS011;24934;52.752;6.964;2022-07-21T06:14:29;26.20;;;24.08;;
39218;SDS011;24934;52.752;6.964;2022-07-21T06:16:54;27.20;;;25.00;;
39218;SDS011;24934;52.752;6.964;2022-07-21T06:19:20;27.48;;;25.13;;
39218;SDS011;24934;52.752;6.964;2022-07-21T06:21:45;25.33;;;23.23;;
39218;SDS011;24934;52.752;6.964;2022-07-21T06:24:14;26.67;;;24.45;;
39218;SDS011;24934;52.752;6.964;2022-07-21T06:26:40;25.63;;;23.38;;
39218;SDS011;24934;52.752;6.964;2022-07-21T06:29:06;24.70;;;22.73;;
39218;SDS011;24934;52.752;6.964;2022-07-21T06:31:32;26.35;;;23.77;;
39218;SDS011;24934;52.752;6.964;2022-07-21T06:34:00;24.20;;;22.20;;
39218;SDS011;24934;52.752;6.964;2022-07-21T06:36:25;27.20;;;24.20;;
39218;SDS011;24934;52.752;6.964;2022-07-21T06:38:51;24.17;;;22.17;;
39218;SDS011;24934;52.752;6.964;2022-07-21T06:41:16;25.65;;;23.42;;
39218;SDS011;24934;52.752;6.964;2022-07-21T06:43:42;24.20;;;22.10;;
39218;SDS011;24934;52.752;6.964;2022-07-21T06:46:11;24.80;;;22.17;;
39218;SDS011;24934;52.752;6.964;2022-07-21T06:48:36;24.15;;;21.98;;
39218;SDS011;24934;52.752;6.964;2022-07-21T06:51:02;23.77;;;21.77;;
39218;SDS011;24934;52.752;6.964;2022-07-21T06:53:28;22.88;;;20.98;;
39218;SDS011;24934;52.752;6.964;2022-07-21T06:55:56;23.17;;;21.15;;
39218;SDS011;24934;52.752;6.964;2022-07-21T06:58:22;22.83;;;20.90;;
39218;SDS011;24934;52.752;6.964;2022-07-21T07:00:52;23.17;;;21.25;;
39218;SDS011;24934;52.752;6.964;2022-07-21T07:03:18;22.08;;;20.27;;
39218;SDS011;24934;52.752;6.964;2022-07-21T07:05:45;25.05;;;22.58;;
39218;SDS011;24934;52.752;6.964;2022-07-21T07:08:12;22.92;;;21.00;;
39218;SDS011;24934;52.752;6.964;2022-07-21T07:10:41;23.02;;;21.10;;
39218;SDS011;24934;52.752;6.964;2022-07-21T07:13:08;22.65;;;20.85;;
39218;SDS011;24934;52.752;6.964;2022-07-21T07:15:34;22.08;;;20.23;;
39218;SDS011;24934;52.752;6.964;2022-07-21T07:18:00;22.75;;;20.85;;
39218;SDS011;24934;52.752;6.964;2022-07-21T07:20:25;21.95;;;20.15;;
39218;SDS011;24934;52.752;6.964;2022-07-21T07:22:51;20.75;;;19.05;;
39218;SDS011;24934;52.752;6.964;2022-07-21T07:25:17;21.60;;;19.80;;
39218;SDS011;24934;52.752;6.964;2022-07-21T07:27:44;21.45;;;19.75;;
39218;SDS011;24934;52.752;6.964;2022-07-21T07:30:11;21.30;;;19.42;;
39218;SDS011;24934;52.752;6.964;2022-07-21T07:32:38;20.88;;;19.13;;
39218;SDS011;24934;52.752;6.964;2022-07-21T07:35:05;22.48;;;20.58;;
39218;SDS011;24934;52.752;6.964;2022-07-21T07:37:33;20.48;;;18.77;;
39218;SDS011;24934;52.752;6.964;2022-07-21T07:39:59;20.38;;;18.77;;
39218;SDS011;24934;52.752;6.964;2022-07-21T07:42:25;21.38;;;19.45;;
39218;SDS011;24934;52.752;6.964;2022-07-21T07:44:51;20.50;;;18.98;;
39218;SDS011;24934;52.752;6.964;2022-07-21T07:47:16;20.90;;;19.20;;
39218;SDS011;24934;52.752;6.964;2022-07-21T07:49:45;20.73;;;19.10;;
39218;SDS011;24934;52.752;6.964;2022-07-21T07:52:12;20.42;;;18.83;;
39218;SDS011;24934;52.752;6.964;2022-07-21T07:54:38;20.98;;;19.23;;
39218;SDS011;24934;52.752;6.964;2022-07-21T07:57:03;19.58;;;17.98;;
39218;SDS011;24934;52.752;6.964;2022-07-21T07:59:29;19.17;;;17.67;;
39218;SDS011;24934;52.752;6.964;2022-07-21T08:01:55;20.83;;;19.00;;
39218;SDS011;24934;52.752;6.964;2022-07-21T08:04:20;18.33;;;16.88;;
39218;SDS011;24934;52.752;6.964;2022-07-21T08:06:46;18.02;;;16.73;;
39218;SDS011;24934;52.752;6.964;2022-07-21T08:09:11;19.90;;;18.05;;
39218;SDS011;24934;52.752;6.964;2022-07-21T08:11:37;19.58;;;17.52;;
39218;SDS011;24934;52.752;6.964;2022-07-21T08:14:02;19.10;;;17.58;;
39218;SDS011;24934;52.752;6.964;2022-07-21T08:16:28;17.88;;;16.58;;
39218;SDS011;24934;52.752;6.964;2022-07-21T08:18:54;17.45;;;16.05;;
39218;SDS011;24934;52.752;6.964;2022-07-21T08:21:19;18.92;;;17.20;;
39218;SDS011;24934;52.752;6.964;2022-07-21T08:23:45;18.27;;;16.83;;
39218;SDS011;24934;52.752;6.964;2022-07-21T08:26:10;20.30;;;18.50;;
39218;SDS011;24934;52.752;6.964;2022-07-21T08:28:36;19.50;;;17.90;;
39218;SDS011;24934;52.752;6.964;2022-07-21T08:31:01;19.05;;;17.55;;
39218;SDS011;24934;52.752;6.964;2022-07-21T08:33:27;17.42;;;16.15;;
39218;SDS011;24934;52.752;6.964;2022-07-21T08:35:53;19.63;;;18.02;;
39218;SDS011;24934;52.752;6.964;2022-07-21T08:38:19;18.73;;;17.30;;
39218;SDS011;24934;52.752;6.964;2022-07-21T08:40:45;19.00;;;17.50;;
39218;SDS011;24934;52.752;6.964;2022-07-21T08:43:11;18.33;;;16.80;;
39218;SDS011;24934;52.752;6.964;2022-07-21T08:45:40;18.13;;;16.70;;
39218;SDS011;24934;52.752;6.964;2022-07-21T08:48:09;17.48;;;16.20;;
39218;SDS011;24934;52.752;6.964;2022-07-21T08:50:36;16.42;;;15.25;;
39218;SDS011;24934;52.752;6.964;2022-07-21T08:53:04;17.33;;;16.02;;
39218;SDS011;24934;52.752;6.964;2022-07-21T08:55:37;17.45;;;16.15;;
39218;SDS011;24934;52.752;6.964;2022-07-21T08:58:06;16.85;;;15.65;;
39218;SDS011;24934;52.752;6.964;2022-07-21T09:00:37;15.80;;;14.70;;
39218;SDS011;24934;52.752;6.964;2022-07-21T09:03:21;14.90;;;13.88;;
39218;SDS011;24934;52.752;6.964;2022-07-21T09:06:09;15.38;;;14.25;;
39218;SDS011;24934;52.752;6.964;2022-07-21T09:08:40;16.23;;;14.95;;
39218;SDS011;24934;52.752;6.964;2022-07-21T09:11:14;14.88;;;13.60;;
39218;SDS011;24934;52.752;6.964;2022-07-21T09:13:46;14.38;;;13.27;;
39218;SDS011;24934;52.752;6.964;2022-07-21T09:16:23;14.15;;;13.10;;
39218;SDS011;24934;52.752;6.964;2022-07-21T09:19:04;14.77;;;13.52;;
39218;SDS011;24934;52.752;6.964;2022-07-21T09:21:34;14.82;;;13.63;;
39218;SDS011;24934;52.752;6.964;2022-07-21T09:24:10;15.57;;;14.32;;
39218;SDS011;24934;52.752;6.964;2022-07-21T09:26:59;13.60;;;12.57;;
39218;SDS011;24934;52.752;6.964;2022-07-21T09:29:25;14.05;;;13.00;;
39218;SDS011;24934;52.752;6.964;2022-07-21T09:31:51;13.85;;;12.82;;
39218;SDS011;24934;52.752;6.964;2022-07-21T09:34:17;14.00;;;12.90;;
39218;SDS011;24934;52.752;6.964;2022-07-21T09:36:58;15.07;;;13.88;;
39218;SDS011;24934;52.752;6.964;2022-07-21T09:39:40;15.13;;;13.93;;
39218;SDS011;24934;52.752;6.964;2022-07-21T09:42:13;13.18;;;12.15;;
39218;SDS011;24934;52.752;6.964;2022-07-21T09:44:48;13.90;;;12.70;;
39218;SDS011;24934;52.752;6.964;2022-07-21T09:47:21;12.85;;;11.85;;
39218;SDS011;24934;52.752;6.964;2022-07-21T09:49:48;13.68;;;12.68;;
39218;SDS011;24934;52.752;6.964;2022-07-21T09:52:25;12.95;;;12.00;;
39218;SDS011;24934;52.752;6.964;2022-07-21T09:54:51;12.20;;;11.30;;
39218;SDS011;24934;52.752;6.964;2022-07-21T09:57:19;12.15;;;11.18;;
39218;SDS011;24934;52.752;6.964;2022-07-21T09:59:45;14.00;;;12.80;;
39218;SDS011;24934;52.752;6.964;2022-07-21T10:04:43;11.95;;;10.88;;
39218;SDS011;24934;52.752;6.964;2022-07-21T10:07:11;13.35;;;12.30;;
39218;SDS011;24934;52.752;6.964;2022-07-21T10:09:38;13.50;;;12.40;;
39218;SDS011;24934;52.752;6.964;2022-07-21T10:12:05;14.48;;;13.18;;
39218;SDS011;24934;52.752;6.964;2022-07-21T10:14:31;12.50;;;11.40;;
39218;SDS011;24934;52.752;6.964;2022-07-21T10:16:57;11.90;;;10.93;;
39218;SDS011;24934;52.752;6.964;2022-07-21T10:19:30;11.77;;;10.85;;
39218;SDS011;24934;52.752;6.964;2022-07-21T10:24:57;13.25;;;12.15;;
39218;SDS011;24934;52.752;6.964;2022-07-21T10:27:23;14.07;;;12.77;;
39218;SDS011;24934;52.752;6.964;2022-07-21T10:29:59;12.85;;;11.75;;
39218;SDS011;24934;52.752;6.964;2022-07-21T10:35:01;12.95;;;11.82;;
39218;SDS011;24934;52.752;6.964;2022-07-21T10:37:47;12.32;;;11.43;;
39218;SDS011;24934;52.752;6.964;2022-07-21T10:42:45;15.23;;;13.85;;
39218;SDS011;24934;52.752;6.964;2022-07-21T10:45:32;14.70;;;13.40;;
39218;SDS011;24934;52.752;6.964;2022-07-21T10:48:00;14.70;;;13.48;;
39218;SDS011;24934;52.752;6.964;2022-07-21T10:50:37;15.15;;;13.40;;
39218;SDS011;24934;52.752;6.964;2022-07-21T10:53:16;14.90;;;13.50;;
39218;SDS011;24934;52.752;6.964;2022-07-21T10:55:49;13.40;;;12.20;;
39218;SDS011;24934;52.752;6.964;2022-07-21T11:03:43;14.38;;;13.02;;
39218;SDS011;24934;52.752;6.964;2022-07-21T11:11:39;11.20;;;10.30;;
39218;SDS011;24934;52.752;6.964;2022-07-21T11:14:12;13.00;;;12.00;;
39218;SDS011;24934;52.752;6.964;2022-07-21T11:21:58;12.18;;;11.23;;
39218;SDS011;24934;52.752;6.964;2022-07-21T11:24:26;11.77;;;10.85;;
39218;SDS011;24934;52.752;6.964;2022-07-21T11:29:35;11.35;;;10.45;;
39218;SDS011;24934;52.752;6.964;2022-07-21T11:32:03;11.13;;;10.23;;
39218;SDS011;24934;52.752;6.964;2022-07-21T11:37:18;12.98;;;11.68;;
39218;SDS011;24934;52.752;6.964;2022-07-21T11:39:52;10.93;;;10.13;;
39218;SDS011;24934;52.752;6.964;2022-07-21T11:42:18;11.48;;;10.45;;
39218;SDS011;24934;52.752;6.964;2022-07-21T11:44:43;11.27;;;10.32;;
39218;SDS011;24934;52.752;6.964;2022-07-21T11:47:13;10.05;;;9.25;;
39218;SDS011;24934;52.752;6.964;2022-07-21T11:49:39;10.32;;;9.45;;
39218;SDS011;24934;52.752;6.964;2022-07-21T11:52:07;11.30;;;10.50;;
39218;SDS011;24934;52.752;6.964;2022-07-21T11:54:38;11.80;;;10.93;;
39218;SDS011;24934;52.752;6.964;2022-07-21T11:57:07;13.18;;;12.02;;
39218;SDS011;24934;52.752;6.964;2022-07-21T11:59:34;11.13;;;10.32;;
39218;SDS011;24934;52.752;6.964;2022-07-21T12:02:03;12.20;;;11.20;;
39218;SDS011;24934;52.752;6.964;2022-07-21T12:09:43;13.95;;;11.65;;
39218;SDS011;24934;52.752;6.964;2022-07-21T12:12:11;13.85;;;11.40;;
39218;SDS011;24934;52.752;6.964;2022-07-21T12:14:47;12.50;;;11.50;;
39218;SDS011;24934;52.752;6.964;2022-07-21T12:17:19;13.02;;;11.93;;
39218;SDS011;24934;52.752;6.964;2022-07-21T12:19:57;12.70;;;11.70;;
39218;SDS011;24934;52.752;6.964;2022-07-21T12:22:34;11.43;;;10.63;;
39218;SDS011;24934;52.752;6.964;2022-07-21T12:25:10;12.60;;;11.57;;
39218;SDS011;24934;52.752;6.964;2022-07-21T12:27:37;12.40;;;11.27;;
39218;SDS011;24934;52.752;6.964;2022-07-21T12:30:07;10.93;;;10.13;;
39218;SDS011;24934;52.752;6.964;2022-07-21T12:32:42;10.95;;;10.13;;
39218;SDS011;24934;52.752;6.964;2022-07-21T12:35:16;10.73;;;9.85;;
39218;SDS011;24934;52.752;6.964;2022-07-21T12:37:54;11.20;;;10.45;;
39218;SDS011;24934;52.752;6.964;2022-07-21T12:40:22;12.10;;;11.05;;
39218;SDS011;24934;52.752;6.964;2022-07-21T12:42:50;10.52;;;9.82;;
39218;SDS011;24934;52.752;6.964;2022-07-21T12:45:27;12.85;;;11.82;;
39218;SDS011;24934;52.752;6.964;2022-07-21T12:48:08;10.52;;;9.80;;
39218;SDS011;24934;52.752;6.964;2022-07-21T12:50:35;9.55;;;8.60;;
39218;SDS011;24934;52.752;6.964;2022-07-21T12:53:07;10.07;;;9.27;;
39218;SDS011;24934;52.752;6.964;2022-07-21T12:55:34;10.20;;;9.00;;
39218;SDS011;24934;52.752;6.964;2022-07-21T12:58:00;10.13;;;9.43;;
39218;SDS011;24934;52.752;6.964;2022-07-21T13:00:25;9.45;;;8.77;;
39218;SDS011;24934;52.752;6.964;2022-07-21T13:02:52;8.88;;;8.27;;
39218;SDS011;24934;52.752;6.964;2022-07-21T13:05:19;10.75;;;10.02;;
39218;SDS011;24934;52.752;6.964;2022-07-21T13:07:45;9.57;;;8.90;;
39218;SDS011;24934;52.752;6.964;2022-07-21T13:10:11;8.55;;;8.05;;
39218;SDS011;24934;52.752;6.964;2022-07-21T13:12:37;9.32;;;8.63;;
39218;SDS011;24934;52.752;6.964;2022-07-21T13:15:03;9.85;;;9.15;;
39218;SDS011;24934;52.752;6.964;2022-07-21T13:17:30;9.35;;;8.65;;
39218;SDS011;24934;52.752;6.964;2022-07-21T13:19:55;9.80;;;9.10;;
39218;SDS011;24934;52.752;6.964;2022-07-21T13:22:21;10.43;;;9.63;;
39218;SDS011;24934;52.752;6.964;2022-07-21T13:24:47;9.65;;;8.95;;
39218;SDS011;24934;52.752;6.964;2022-07-21T13:27:12;9.98;;;9.18;;
39218;SDS011;24934;52.752;6.964;2022-07-21T13:29:38;8.98;;;8.27;;
39218;SDS011;24934;52.752;6.964;2022-07-21T13:32:05;8.88;;;8.27;;
39218;SDS011;24934;52.752;6.964;2022-07-21T13:34:32;9.45;;;8.70;;
39218;SDS011;24934;52.752;6.964;2022-07-21T13:36:58;9.93;;;9.10;;
39218;SDS011;24934;52.752;6.964;2022-07-21T13:39:23;8.80;;;8.20;;
39218;SDS011;24934;52.752;6.964;2022-07-21T13:41:52;9.52;;;8.93;;
39218;SDS011;24934;52.752;6.964;2022-07-21T13:44:18;8.23;;;7.72;;
39218;SDS011;24934;52.752;6.964;2022-07-21T13:46:44;9.15;;;8.55;;
39218;SDS011;24934;52.752;6.964;2022-07-21T13:49:09;9.30;;;8.60;;
39218;SDS011;24934;52.752;6.964;2022-07-21T13:51:35;9.77;;;9.07;;
39218;SDS011;24934;52.752;6.964;2022-07-21T13:54:00;10.95;;;10.15;;
39218;SDS011;24934;52.752;6.964;2022-07-21T13:56:26;9.32;;;8.70;;
39218;SDS011;24934;52.752;6.964;2022-07-21T13:58:52;8.40;;;7.80;;
39218;SDS011;24934;52.752;6.964;2022-07-21T14:01:17;9.02;;;8.43;;
39218;SDS011;24934;52.752;6.964;2022-07-21T14:03:43;8.52;;;8.02;;
39218;SDS011;24934;52.752;6.964;2022-07-21T14:06:10;9.57;;;8.98;;
39218;SDS011;24934;52.752;6.964;2022-07-21T14:08:37;9.07;;;8.57;;
39218;SDS011;24934;52.752;6.964;2022-07-21T14:11:03;8.30;;;7.80;;
39218;SDS011;24934;52.752;6.964;2022-07-21T14:13:30;9.38;;;8.77;;
39218;SDS011;24934;52.752;6.964;2022-07-21T14:15:56;9.57;;;8.88;;
39218;SDS011;24934;52.752;6.964;2022-07-21T14:18:21;9.15;;;8.55;;
39218;SDS011;24934;52.752;6.964;2022-07-21T14:20:47;9.52;;;8.93;;
39218;SDS011;24934;52.752;6.964;2022-07-21T14:23:17;9.05;;;8.45;;
39218;SDS011;24934;52.752;6.964;2022-07-21T14:25:43;9.32;;;8.73;;
39218;SDS011;24934;52.752;6.964;2022-07-21T14:28:09;8.88;;;8.35;;
39218;SDS011;24934;52.752;6.964;2022-07-21T14:30:34;9.43;;;8.70;;
39218;SDS011;24934;52.752;6.964;2022-07-21T14:33:00;9.70;;;9.05;;
39218;SDS011;24934;52.752;6.964;2022-07-21T14:35:29;8.63;;;8.13;;
39218;SDS011;24934;52.752;6.964;2022-07-21T14:37:54;8.65;;;8.15;;
39218;SDS011;24934;52.752;6.964;2022-07-21T14:40:20;9.25;;;8.65;;
39218;SDS011;24934;52.752;6.964;2022-07-21T14:42:47;9.18;;;8.55;;
39218;SDS011;24934;52.752;6.964;2022-07-21T14:45:13;9.13;;;8.52;;
39218;SDS011;24934;52.752;6.964;2022-07-21T14:47:40;8.65;;;8.07;;
39218;SDS011;24934;52.752;6.964;2022-07-21T14:50:05;9.20;;;8.60;;
39218;SDS011;24934;52.752;6.964;2022-07-21T14:52:31;9.05;;;8.45;;
39218;SDS011;24934;52.752;6.964;2022-07-21T14:54:57;8.88;;;8.27;;
39218;SDS011;24934;52.752;6.964;2022-07-21T14:57:23;8.70;;;8.10;;
39218;SDS011;24934;52.752;6.964;2022-07-21T14:59:48;8.88;;;8.32;;
39218;SDS011;24934;52.752;6.964;2022-07-21T15:02:18;9.43;;;8.82;;
39218;SDS011;24934;52.752;6.964;2022-07-21T15:04:52;9.68;;;9.00;;